sensor_id;sensor_type;location;lat;lon;timestamp;temperature;humidity
23186;DHT22;11761;51.324;4.590;2022-12-18T00:02:03;-6.20;99.90
23186;DHT22;11761;51.324;4.590;2022-12-18T00:04:29;-6.20;99.90
23186;DHT22;11761;51.324;4.590;2022-12-18T00:06:55;-6.20;99.90
23186;DHT22;11761;51.324;4.590;2022-12-18T00:09:22;-6.20;99.90
23186;DHT22;11761;51.324;4.590;2022-12-18T00:11:48;-6.20;99.90
23186;DHT22;11761;51.324;4.590;2022-12-18T00:14:15;-6.20;99.90
23186;DHT22;11761;51.324;4.590;2022-12-18T00:16:44;-6.30;99.90
23186;DHT22;11761;51.324;4.590;2022-12-18T00:19:11;-6.30;99.90
23186;DHT22;11761;51.324;4.590;2022-12-18T00:21:41;-5.90;99.90
23186;DHT22;11761;51.324;4.590;2022-12-18T00:24:07;-5.70;99.90
23186;DHT22;11761;51.324;4.590;2022-12-18T00:26:35;-5.60;99.90
23186;DHT22;11761;51.324;4.590;2022-12-18T00:29:07;-5.70;99.90
23186;DHT22;11761;51.324;4.590;2022-12-18T00:31:35;-5.80;99.90
23186;DHT22;11761;51.324;4.590;2022-12-18T00:34:01;-5.90;99.90
23186;DHT22;11761;51.324;4.590;2022-12-18T00:36:30;-6.00;99.90
23186;DHT22;11761;51.324;4.590;2022-12-18T00:38:58;-6.00;99.90
23186;DHT22;11761;51.324;4.590;2022-12-18T00:41:25;-6.00;99.90
23186;DHT22;11761;51.324;4.590;2022-12-18T00:44:12;-5.90;99.90
23186;DHT22;11761;51.324;4.590;2022-12-18T00:46:38;-6.00;99.90
23186;DHT22;11761;51.324;4.590;2022-12-18T00:49:05;-6.00;99.90
23186;DHT22;11761;51.324;4.590;2022-12-18T00:51:31;-6.00;99.90
23186;DHT22;11761;51.324;4.590;2022-12-18T00:53:58;-5.90;99.90
23186;DHT22;11761;51.324;4.590;2022-12-18T00:56:24;-5.80;99.90
23186;DHT22;11761;51.324;4.590;2022-12-18T00:58:50;-5.80;99.90
23186;DHT22;11761;51.324;4.590;2022-12-18T01:01:17;-5.90;99.90
23186;DHT22;11761;51.324;4.590;2022-12-18T01:03:43;-5.90;99.90
23186;DHT22;11761;51.324;4.590;2022-12-18T01:06:12;-5.90;99.90
23186;DHT22;11761;51.324;4.590;2022-12-18T01:08:39;-6.00;99.90
23186;DHT22;11761;51.324;4.590;2022-12-18T01:11:10;-5.90;99.90
23186;DHT22;11761;51.324;4.590;2022-12-18T01:13:36;-5.80;99.90
23186;DHT22;11761;51.324;4.590;2022-12-18T01:16:03;-5.70;99.90
23186;DHT22;11761;51.324;4.590;2022-12-18T01:18:29;-5.80;99.90
23186;DHT22;11761;51.324;4.590;2022-12-18T01:20:56;-5.70;99.90
23186;DHT22;11761;51.324;4.590;2022-12-18T01:23:22;-5.70;99.90
23186;DHT22;11761;51.324;4.590;2022-12-18T01:25:48;-5.60;99.90
23186;DHT22;11761;51.324;4.590;2022-12-18T01:28:14;-5.70;99.90
23186;DHT22;11761;51.324;4.590;2022-12-18T01:30:40;-5.80;99.90
23186;DHT22;11761;51.324;4.590;2022-12-18T01:33:06;-5.80;99.90
23186;DHT22;11761;51.324;4.590;2022-12-18T01:35:32;-5.70;99.90
23186;DHT22;11761;51.324;4.590;2022-12-18T01:37:58;-5.70;99.90
23186;DHT22;11761;51.324;4.590;2022-12-18T01:40:25;-5.90;99.90
23186;DHT22;11761;51.324;4.590;2022-12-18T01:42:54;-6.00;99.90
23186;DHT22;11761;51.324;4.590;2022-12-18T01:45:31;-6.10;99.90
23186;DHT22;11761;51.324;4.590;2022-12-18T01:48:00;-6.20;99.90
23186;DHT22;11761;51.324;4.590;2022-12-18T01:50:36;-6.20;99.90
23186;DHT22;11761;51.324;4.590;2022-12-18T01:53:06;-6.30;99.90
23186;DHT22;11761;51.324;4.590;2022-12-18T01:55:41;-6.30;99.90
23186;DHT22;11761;51.324;4.590;2022-12-18T01:58:08;-6.50;99.90
23186;DHT22;11761;51.324;4.590;2022-12-18T02:00:35;-6.50;99.90
23186;DHT22;11761;51.324;4.590;2022-12-18T02:03:01;-6.40;99.90
23186;DHT22;11761;51.324;4.590;2022-12-18T02:05:47;-6.20;99.90
23186;DHT22;11761;51.324;4.590;2022-12-18T02:08:37;-6.30;99.90
23186;DHT22;11761;51.324;4.590;2022-12-18T02:16:44;-6.70;99.90
23186;DHT22;11761;51.324;4.590;2022-12-18T02:22:34;-7.00;99.90
23186;DHT22;11761;51.324;4.590;2022-12-18T02:25:38;-7.00;99.90
23186;DHT22;11761;51.324;4.590;2022-12-18T02:28:09;-6.60;99.90
23186;DHT22;11761;51.324;4.590;2022-12-18T02:30:38;-6.30;99.90
23186;DHT22;11761;51.324;4.590;2022-12-18T02:33:07;-6.20;99.90
23186;DHT22;11761;51.324;4.590;2022-12-18T02:35:34;-6.20;99.90
23186;DHT22;11761;51.324;4.590;2022-12-18T02:38:03;-6.10;99.90
23186;DHT22;11761;51.324;4.590;2022-12-18T02:40:30;-6.20;99.90
23186;DHT22;11761;51.324;4.590;2022-12-18T02:43:06;-6.30;99.90
23186;DHT22;11761;51.324;4.590;2022-12-18T02:45:32;-6.40;99.90
23186;DHT22;11761;51.324;4.590;2022-12-18T02:47:58;-6.30;99.90
23186;DHT22;11761;51.324;4.590;2022-12-18T02:53:13;-5.90;99.90
23186;DHT22;11761;51.324;4.590;2022-12-18T02:58:37;-6.20;99.90
23186;DHT22;11761;51.324;4.590;2022-12-18T03:01:15;-6.10;99.90
23186;DHT22;11761;51.324;4.590;2022-12-18T03:04:32;-6.00;99.90
23186;DHT22;11761;51.324;4.590;2022-12-18T03:06:46;-6.10;99.90
23186;DHT22;11761;51.324;4.590;2022-12-18T03:09:17;-6.30;99.90
23186;DHT22;11761;51.324;4.590;2022-12-18T03:11:52;-6.50;99.90
23186;DHT22;11761;51.324;4.590;2022-12-18T03:14:38;-6.50;99.90
23186;DHT22;11761;51.324;4.590;2022-12-18T03:17:10;-6.20;99.90
23186;DHT22;11761;51.324;4.590;2022-12-18T03:19:40;-6.30;99.90
23186;DHT22;11761;51.324;4.590;2022-12-18T03:22:07;-6.10;99.90
23186;DHT22;11761;51.324;4.590;2022-12-18T03:24:34;-6.10;99.90
23186;DHT22;11761;51.324;4.590;2022-12-18T03:27:08;-6.20;99.90
23186;DHT22;11761;51.324;4.590;2022-12-18T03:29:56;-6.40;99.90
23186;DHT22;11761;51.324;4.590;2022-12-18T03:32:50;-6.10;99.90
23186;DHT22;11761;51.324;4.590;2022-12-18T03:35:22;-6.30;99.90
23186;DHT22;11761;51.324;4.590;2022-12-18T03:37:50;-6.30;99.90
23186;DHT22;11761;51.324;4.590;2022-12-18T03:40:16;-6.50;99.90
23186;DHT22;11761;51.324;4.590;2022-12-18T03:42:51;-6.60;99.90
23186;DHT22;11761;51.324;4.590;2022-12-18T03:45:34;-6.70;99.90
23186;DHT22;11761;51.324;4.590;2022-12-18T03:48:09;-6.80;99.90
23186;DHT22;11761;51.324;4.590;2022-12-18T03:50:47;-6.90;99.90
23186;DHT22;11761;51.324;4.590;2022-12-18T03:53:39;-7.00;99.90
23186;DHT22;11761;51.324;4.590;2022-12-18T03:56:09;-7.00;99.90
23186;DHT22;11761;51.324;4.590;2022-12-18T03:58:37;-7.00;99.90
23186;DHT22;11761;51.324;4.590;2022-12-18T04:01:08;-7.00;99.90
23186;DHT22;11761;51.324;4.590;2022-12-18T04:03:37;-7.00;99.90
23186;DHT22;11761;51.324;4.590;2022-12-18T04:06:04;-7.10;99.90
23186;DHT22;11761;51.324;4.590;2022-12-18T04:08:32;-7.10;99.90
23186;DHT22;11761;51.324;4.590;2022-12-18T04:11:00;-7.20;99.90
23186;DHT22;11761;51.324;4.590;2022-12-18T04:13:32;-7.20;99.90
23186;DHT22;11761;51.324;4.590;2022-12-18T04:16:00;-7.20;99.90
23186;DHT22;11761;51.324;4.590;2022-12-18T04:18:27;-7.20;99.90
23186;DHT22;11761;51.324;4.590;2022-12-18T04:20:53;-7.20;99.90
23186;DHT22;11761;51.324;4.590;2022-12-18T04:23:19;-7.30;99.90
23186;DHT22;11761;51.324;4.590;2022-12-18T04:25:47;-7.30;99.90
23186;DHT22;11761;51.324;4.590;2022-12-18T04:28:13;-7.30;99.90
23186;DHT22;11761;51.324;4.590;2022-12-18T04:30:39;-7.30;99.90
23186;DHT22;11761;51.324;4.590;2022-12-18T04:33:11;-7.30;99.90
23186;DHT22;11761;51.324;4.590;2022-12-18T04:35:39;-7.30;99.90
23186;DHT22;11761;51.324;4.590;2022-12-18T04:38:07;-7.20;99.90
23186;DHT22;11761;51.324;4.590;2022-12-18T04:40:34;-7.20;99.90
23186;DHT22;11761;51.324;4.590;2022-12-18T04:43:00;-7.20;99.90
23186;DHT22;11761;51.324;4.590;2022-12-18T04:45:26;-7.20;99.90
23186;DHT22;11761;51.324;4.590;2022-12-18T04:47:53;-7.10;99.90
23186;DHT22;11761;51.324;4.590;2022-12-18T04:50:19;-7.10;99.90
23186;DHT22;11761;51.324;4.590;2022-12-18T04:52:45;-7.10;99.90
23186;DHT22;11761;51.324;4.590;2022-12-18T04:55:11;-6.80;99.90
23186;DHT22;11761;51.324;4.590;2022-12-18T04:57:37;-6.80;99.90
23186;DHT22;11761;51.324;4.590;2022-12-18T05:00:03;-6.90;99.90
23186;DHT22;11761;51.324;4.590;2022-12-18T05:02:32;-6.90;99.90
23186;DHT22;11761;51.324;4.590;2022-12-18T05:04:58;-6.80;99.90
23186;DHT22;11761;51.324;4.590;2022-12-18T05:07:24;-6.80;99.90
23186;DHT22;11761;51.324;4.590;2022-12-18T05:09:50;-6.90;99.90
23186;DHT22;11761;51.324;4.590;2022-12-18T05:12:16;-7.00;99.90
23186;DHT22;11761;51.324;4.590;2022-12-18T05:14:43;-7.00;99.90
23186;DHT22;11761;51.324;4.590;2022-12-18T05:17:09;-7.10;99.90
23186;DHT22;11761;51.324;4.590;2022-12-18T05:19:35;-7.10;99.90
23186;DHT22;11761;51.324;4.590;2022-12-18T05:22:03;-7.10;99.90
23186;DHT22;11761;51.324;4.590;2022-12-18T05:24:30;-7.10;99.90
23186;DHT22;11761;51.324;4.590;2022-12-18T05:26:56;-7.10;99.90
23186;DHT22;11761;51.324;4.590;2022-12-18T05:29:22;-7.00;99.90
23186;DHT22;11761;51.324;4.590;2022-12-18T05:31:48;-7.00;99.90
23186;DHT22;11761;51.324;4.590;2022-12-18T05:34:14;-7.00;99.90
23186;DHT22;11761;51.324;4.590;2022-12-18T05:36:40;-7.00;99.90
23186;DHT22;11761;51.324;4.590;2022-12-18T05:39:07;-7.00;99.90
23186;DHT22;11761;51.324;4.590;2022-12-18T05:41:33;-7.10;99.90
23186;DHT22;11761;51.324;4.590;2022-12-18T05:43:59;-7.10;99.90
23186;DHT22;11761;51.324;4.590;2022-12-18T05:46:26;-7.20;99.90
23186;DHT22;11761;51.324;4.590;2022-12-18T05:48:52;-7.30;99.90
23186;DHT22;11761;51.324;4.590;2022-12-18T05:51:21;-7.30;99.90
23186;DHT22;11761;51.324;4.590;2022-12-18T05:53:48;-7.30;99.90
23186;DHT22;11761;51.324;4.590;2022-12-18T05:56:17;-7.20;99.90
23186;DHT22;11761;51.324;4.590;2022-12-18T05:58:44;-7.10;99.90
23186;DHT22;11761;51.324;4.590;2022-12-18T06:01:19;-6.80;99.90
23186;DHT22;11761;51.324;4.590;2022-12-18T06:03:46;-6.40;99.90
23186;DHT22;11761;51.324;4.590;2022-12-18T06:06:16;-6.20;99.90
23186;DHT22;11761;51.324;4.590;2022-12-18T06:08:43;-6.00;99.90
23186;DHT22;11761;51.324;4.590;2022-12-18T06:11:09;-6.10;99.90
23186;DHT22;11761;51.324;4.590;2022-12-18T06:13:36;-6.10;99.90
23186;DHT22;11761;51.324;4.590;2022-12-18T06:16:04;-6.00;99.90
23186;DHT22;11761;51.324;4.590;2022-12-18T06:18:30;-5.90;99.90
23186;DHT22;11761;51.324;4.590;2022-12-18T06:20:57;-5.80;99.90
23186;DHT22;11761;51.324;4.590;2022-12-18T06:23:24;-5.90;99.90
23186;DHT22;11761;51.324;4.590;2022-12-18T06:25:50;-6.00;99.90
23186;DHT22;11761;51.324;4.590;2022-12-18T06:28:16;-6.10;99.90
23186;DHT22;11761;51.324;4.590;2022-12-18T06:30:46;-6.10;99.90
23186;DHT22;11761;51.324;4.590;2022-12-18T06:33:16;-6.20;99.90
23186;DHT22;11761;51.324;4.590;2022-12-18T06:35:42;-6.10;99.90
23186;DHT22;11761;51.324;4.590;2022-12-18T06:38:08;-6.30;99.90
23186;DHT22;11761;51.324;4.590;2022-12-18T06:40:37;-6.50;99.90
23186;DHT22;11761;51.324;4.590;2022-12-18T06:43:04;-6.50;99.90
23186;DHT22;11761;51.324;4.590;2022-12-18T06:45:30;-6.50;99.90
23186;DHT22;11761;51.324;4.590;2022-12-18T06:47:56;-6.40;99.90
23186;DHT22;11761;51.324;4.590;2022-12-18T06:50:22;-6.30;99.90
23186;DHT22;11761;51.324;4.590;2022-12-18T06:52:48;-6.40;99.90
23186;DHT22;11761;51.324;4.590;2022-12-18T06:55:14;-6.50;99.90
23186;DHT22;11761;51.324;4.590;2022-12-18T06:57:41;-6.50;99.90
23186;DHT22;11761;51.324;4.590;2022-12-18T07:00:07;-6.70;99.90
23186;DHT22;11761;51.324;4.590;2022-12-18T07:02:33;-6.70;99.90
23186;DHT22;11761;51.324;4.590;2022-12-18T07:05:00;-6.70;99.90
23186;DHT22;11761;51.324;4.590;2022-12-18T07:07:26;-6.80;99.90
23186;DHT22;11761;51.324;4.590;2022-12-18T07:09:53;-6.60;99.90
23186;DHT22;11761;51.324;4.590;2022-12-18T07:12:19;-6.50;99.90
23186;DHT22;11761;51.324;4.590;2022-12-18T07:14:45;-6.30;99.90
23186;DHT22;11761;51.324;4.590;2022-12-18T07:17:11;-6.30;99.90
23186;DHT22;11761;51.324;4.590;2022-12-18T07:19:37;-6.40;99.90
23186;DHT22;11761;51.324;4.590;2022-12-18T07:22:04;-6.30;99.90
23186;DHT22;11761;51.324;4.590;2022-12-18T07:24:30;-6.20;99.90
23186;DHT22;11761;51.324;4.590;2022-12-18T07:26:56;-6.30;99.90
23186;DHT22;11761;51.324;4.590;2022-12-18T07:29:22;-6.50;99.90
23186;DHT22;11761;51.324;4.590;2022-12-18T07:31:48;-6.70;99.90
23186;DHT22;11761;51.324;4.590;2022-12-18T07:34:14;-6.80;99.90
23186;DHT22;11761;51.324;4.590;2022-12-18T07:36:42;-6.80;99.90
23186;DHT22;11761;51.324;4.590;2022-12-18T07:39:10;-6.80;99.90
23186;DHT22;11761;51.324;4.590;2022-12-18T07:41:37;-6.80;99.90
23186;DHT22;11761;51.324;4.590;2022-12-18T07:44:03;-6.90;99.90
23186;DHT22;11761;51.324;4.590;2022-12-18T07:46:29;-6.90;99.90
23186;DHT22;11761;51.324;4.590;2022-12-18T07:48:55;-7.00;99.90
23186;DHT22;11761;51.324;4.590;2022-12-18T07:51:21;-7.10;99.90
23186;DHT22;11761;51.324;4.590;2022-12-18T07:53:48;-7.10;99.90
23186;DHT22;11761;51.324;4.590;2022-12-18T07:56:14;-7.10;99.90
23186;DHT22;11761;51.324;4.590;2022-12-18T07:58:40;-7.10;99.90
23186;DHT22;11761;51.324;4.590;2022-12-18T08:01:08;-7.00;99.90
23186;DHT22;11761;51.324;4.590;2022-12-18T08:03:36;-6.90;99.90
23186;DHT22;11761;51.324;4.590;2022-12-18T08:06:04;-6.80;99.90
23186;DHT22;11761;51.324;4.590;2022-12-18T08:08:32;-6.70;99.90
23186;DHT22;11761;51.324;4.590;2022-12-18T08:10:59;-6.60;99.90
23186;DHT22;11761;51.324;4.590;2022-12-18T08:13:26;-6.40;99.90
23186;DHT22;11761;51.324;4.590;2022-12-18T08:16:00;-6.30;99.90
23186;DHT22;11761;51.324;4.590;2022-12-18T08:18:27;-6.30;99.90
23186;DHT22;11761;51.324;4.590;2022-12-18T08:20:54;-6.10;99.90
23186;DHT22;11761;51.324;4.590;2022-12-18T08:23:20;-6.00;99.90
23186;DHT22;11761;51.324;4.590;2022-12-18T08:25:47;-5.80;99.90
23186;DHT22;11761;51.324;4.590;2022-12-18T08:28:13;-5.70;99.90
23186;DHT22;11761;51.324;4.590;2022-12-18T08:30:42;-5.70;99.90
23186;DHT22;11761;51.324;4.590;2022-12-18T08:33:09;-5.70;99.90
23186;DHT22;11761;51.324;4.590;2022-12-18T08:35:36;-5.60;99.90
23186;DHT22;11761;51.324;4.590;2022-12-18T08:38:03;-5.50;99.90
23186;DHT22;11761;51.324;4.590;2022-12-18T08:40:29;-5.30;99.90
23186;DHT22;11761;51.324;4.590;2022-12-18T08:42:55;-5.10;99.90
23186;DHT22;11761;51.324;4.590;2022-12-18T08:45:40;-5.00;99.90
23186;DHT22;11761;51.324;4.590;2022-12-18T08:48:06;-4.80;99.90
23186;DHT22;11761;51.324;4.590;2022-12-18T08:50:32;-4.80;99.90
23186;DHT22;11761;51.324;4.590;2022-12-18T08:52:59;-4.70;99.90
23186;DHT22;11761;51.324;4.590;2022-12-18T08:55:25;-4.60;99.90
23186;DHT22;11761;51.324;4.590;2022-12-18T08:57:51;-4.50;99.90
23186;DHT22;11761;51.324;4.590;2022-12-18T09:00:17;-4.50;99.90
23186;DHT22;11761;51.324;4.590;2022-12-18T09:02:44;-4.40;99.90
23186;DHT22;11761;51.324;4.590;2022-12-18T09:05:10;-4.30;99.90
23186;DHT22;11761;51.324;4.590;2022-12-18T09:07:36;-4.30;99.90
23186;DHT22;11761;51.324;4.590;2022-12-18T09:10:03;-4.20;99.90
23186;DHT22;11761;51.324;4.590;2022-12-18T09:12:29;-4.10;99.90
23186;DHT22;11761;51.324;4.590;2022-12-18T09:14:55;-4.10;99.90
23186;DHT22;11761;51.324;4.590;2022-12-18T09:17:22;-4.00;99.90
23186;DHT22;11761;51.324;4.590;2022-12-18T09:19:48;-4.00;99.90
23186;DHT22;11761;51.324;4.590;2022-12-18T09:22:15;-3.90;99.90
23186;DHT22;11761;51.324;4.590;2022-12-18T09:24:41;-3.80;99.90
23186;DHT22;11761;51.324;4.590;2022-12-18T09:27:07;-3.70;99.90
23186;DHT22;11761;51.324;4.590;2022-12-18T09:29:33;-3.70;99.90
23186;DHT22;11761;51.324;4.590;2022-12-18T09:31:59;-3.70;99.90
23186;DHT22;11761;51.324;4.590;2022-12-18T09:34:25;-3.50;99.90
23186;DHT22;11761;51.324;4.590;2022-12-18T09:36:52;-3.40;99.90
23186;DHT22;11761;51.324;4.590;2022-12-18T09:39:18;-3.30;99.90
23186;DHT22;11761;51.324;4.590;2022-12-18T09:41:47;-3.30;99.90
23186;DHT22;11761;51.324;4.590;2022-12-18T09:44:29;-3.10;99.90
23186;DHT22;11761;51.324;4.590;2022-12-18T09:49:45;-3.00;99.90
23186;DHT22;11761;51.324;4.590;2022-12-18T09:54:55;-2.90;99.90
23186;DHT22;11761;51.324;4.590;2022-12-18T09:57:24;-2.80;99.90
23186;DHT22;11761;51.324;4.590;2022-12-18T10:00:18;-2.80;99.90
23186;DHT22;11761;51.324;4.590;2022-12-18T10:02:44;-2.80;99.90
23186;DHT22;11761;51.324;4.590;2022-12-18T10:05:15;-2.70;99.90
23186;DHT22;11761;51.324;4.590;2022-12-18T10:13:06;-2.40;99.90
23186;DHT22;11761;51.324;4.590;2022-12-18T10:18:34;-2.30;99.90
23186;DHT22;11761;51.324;4.590;2022-12-18T10:21:11;-2.30;99.90
23186;DHT22;11761;51.324;4.590;2022-12-18T10:26:10;-2.30;99.90
23186;DHT22;11761;51.324;4.590;2022-12-18T10:28:38;-2.20;99.90
23186;DHT22;11761;51.324;4.590;2022-12-18T10:31:21;-2.20;99.90
23186;DHT22;11761;51.324;4.590;2022-12-18T10:33:47;-2.20;99.90
23186;DHT22;11761;51.324;4.590;2022-12-18T10:36:14;-2.10;99.90
23186;DHT22;11761;51.324;4.590;2022-12-18T10:38:40;-2.10;99.90
23186;DHT22;11761;51.324;4.590;2022-12-18T10:41:24;-2.00;99.90
23186;DHT22;11761;51.324;4.590;2022-12-18T10:44:20;-2.00;99.90
23186;DHT22;11761;51.324;4.590;2022-12-18T10:46:54;-2.00;99.90
23186;DHT22;11761;51.324;4.590;2022-12-18T10:49:27;-2.00;99.90
23186;DHT22;11761;51.324;4.590;2022-12-18T10:52:15;-2.00;99.90
23186;DHT22;11761;51.324;4.590;2022-12-18T10:54:53;-2.00;99.90
23186;DHT22;11761;51.324;4.590;2022-12-18T10:57:31;-1.80;99.90
23186;DHT22;11761;51.324;4.590;2022-12-18T10:59:59;-1.80;99.90
23186;DHT22;11761;51.324;4.590;2022-12-18T11:04:52;-1.70;99.90
23186;DHT22;11761;51.324;4.590;2022-12-18T11:07:19;-1.80;99.90
23186;DHT22;11761;51.324;4.590;2022-12-18T11:10:00;-1.60;99.90
23186;DHT22;11761;51.324;4.590;2022-12-18T11:12:28;-1.50;99.90
23186;DHT22;11761;51.324;4.590;2022-12-18T11:14:55;-1.50;99.90
23186;DHT22;11761;51.324;4.590;2022-12-18T11:17:30;-1.50;99.90
23186;DHT22;11761;51.324;4.590;2022-12-18T11:20:03;-1.40;99.90
23186;DHT22;11761;51.324;4.590;2022-12-18T11:22:34;-1.40;99.90
23186;DHT22;11761;51.324;4.590;2022-12-18T11:25:17;-1.30;99.90
23186;DHT22;11761;51.324;4.590;2022-12-18T11:27:52;-1.30;99.90
23186;DHT22;11761;51.324;4.590;2022-12-18T11:32:55;-1.20;99.90
23186;DHT22;11761;51.324;4.590;2022-12-18T11:35:48;-1.30;99.90
23186;DHT22;11761;51.324;4.590;2022-12-18T11:38:26;-1.30;99.90
23186;DHT22;11761;51.324;4.590;2022-12-18T11:45:01;-1.20;99.90
23186;DHT22;11761;51.324;4.590;2022-12-18T11:47:39;-1.20;99.90
23186;DHT22;11761;51.324;4.590;2022-12-18T11:52:51;-1.10;99.90
23186;DHT22;11761;51.324;4.590;2022-12-18T11:58:11;-1.10;99.90
23186;DHT22;11761;51.324;4.590;2022-12-18T12:00:51;-1.00;99.90
23186;DHT22;11761;51.324;4.590;2022-12-18T12:06:08;-1.00;99.90
23186;DHT22;11761;51.324;4.590;2022-12-18T12:14:43;-1.00;99.90
23186;DHT22;11761;51.324;4.590;2022-12-18T12:17:50;-1.00;99.90
23186;DHT22;11761;51.324;4.590;2022-12-18T12:20:42;-1.00;99.90
23186;DHT22;11761;51.324;4.590;2022-12-18T12:31:43;-0.80;99.90
23186;DHT22;11761;51.324;4.590;2022-12-18T12:37:04;-0.80;99.90
23186;DHT22;11761;51.324;4.590;2022-12-18T12:39:42;-0.70;99.90
23186;DHT22;11761;51.324;4.590;2022-12-18T12:42:24;-0.80;99.90
23186;DHT22;11761;51.324;4.590;2022-12-18T12:45:36;-0.80;99.90
23186;DHT22;11761;51.324;4.590;2022-12-18T12:48:06;-0.70;99.90
23186;DHT22;11761;51.324;4.590;2022-12-18T12:50:35;-0.60;99.90
23186;DHT22;11761;51.324;4.590;2022-12-18T12:53:07;-0.60;99.90
23186;DHT22;11761;51.324;4.590;2022-12-18T12:55:35;-0.50;99.90
23186;DHT22;11761;51.324;4.590;2022-12-18T13:00:46;-0.50;99.90
23186;DHT22;11761;51.324;4.590;2022-12-18T13:06:16;-0.60;99.90
23186;DHT22;11761;51.324;4.590;2022-12-18T13:08:59;-0.60;99.90
23186;DHT22;11761;51.324;4.590;2022-12-18T13:14:39;-0.60;99.90
23186;DHT22;11761;51.324;4.590;2022-12-18T13:20:13;-0.50;99.90
23186;DHT22;11761;51.324;4.590;2022-12-18T13:22:47;-0.60;99.90
23186;DHT22;11761;51.324;4.590;2022-12-18T13:25:59;-0.60;99.90
23186;DHT22;11761;51.324;4.590;2022-12-18T13:31:12;-0.60;99.90
23186;DHT22;11761;51.324;4.590;2022-12-18T13:36:26;-0.50;99.90
23186;DHT22;11761;51.324;4.590;2022-12-18T13:41:49;-0.50;99.90
23186;DHT22;11761;51.324;4.590;2022-12-18T13:44:51;-0.50;99.90
23186;DHT22;11761;51.324;4.590;2022-12-18T13:47:37;-0.50;99.90
23186;DHT22;11761;51.324;4.590;2022-12-18T13:50:21;-0.50;99.90
23186;DHT22;11761;51.324;4.590;2022-12-18T13:52:48;-0.60;99.90
23186;DHT22;11761;51.324;4.590;2022-12-18T13:55:19;-0.60;99.90
23186;DHT22;11761;51.324;4.590;2022-12-18T13:57:45;-0.60;99.90
23186;DHT22;11761;51.324;4.590;2022-12-18T14:00:30;-0.60;99.90
23186;DHT22;11761;51.324;4.590;2022-12-18T14:02:58;-0.50;99.90
23186;DHT22;11761;51.324;4.590;2022-12-18T14:05:36;-0.50;99.90
23186;DHT22;11761;51.324;4.590;2022-12-18T14:08:10;-0.50;99.90
23186;DHT22;11761;51.324;4.590;2022-12-18T14:10:41;-0.50;99.90
23186;DHT22;11761;51.324;4.590;2022-12-18T14:13:10;-0.60;99.90
23186;DHT22;11761;51.324;4.590;2022-12-18T14:15:44;-0.60;99.90
23186;DHT22;11761;51.324;4.590;2022-12-18T14:21:26;-0.50;99.90
23186;DHT22;11761;51.324;4.590;2022-12-18T14:24:20;-0.50;99.90
23186;DHT22;11761;51.324;4.590;2022-12-18T14:26:48;-0.50;99.90
23186;DHT22;11761;51.324;4.590;2022-12-18T14:29:23;-0.50;99.90
23186;DHT22;11761;51.324;4.590;2022-12-18T14:32:10;-0.50;99.90
23186;DHT22;11761;51.324;4.590;2022-12-18T14:34:36;-0.50;99.90
23186;DHT22;11761;51.324;4.590;2022-12-18T14:37:03;-0.50;99.90
23186;DHT22;11761;51.324;4.590;2022-12-18T14:39:29;-0.50;99.90
23186;DHT22;11761;51.324;4.590;2022-12-18T14:41:55;-0.50;99.90
23186;DHT22;11761;51.324;4.590;2022-12-18T14:44:21;-0.60;99.90
23186;DHT22;11761;51.324;4.590;2022-12-18T14:46:49;-0.60;99.90
23186;DHT22;11761;51.324;4.590;2022-12-18T14:51:51;-0.60;99.90
23186;DHT22;11761;51.324;4.590;2022-12-18T14:54:19;-0.50;99.90
23186;DHT22;11761;51.324;4.590;2022-12-18T14:56:48;-0.50;99.90
23186;DHT22;11761;51.324;4.590;2022-12-18T14:59:20;-0.60;99.90
23186;DHT22;11761;51.324;4.590;2022-12-18T15:04:39;-0.50;99.90
23186;DHT22;11761;51.324;4.590;2022-12-18T15:07:15;-0.50;99.90
23186;DHT22;11761;51.324;4.590;2022-12-18T15:09:44;-0.50;99.90
23186;DHT22;11761;51.324;4.590;2022-12-18T15:12:34;-0.50;99.90
23186;DHT22;11761;51.324;4.590;2022-12-18T15:15:01;-0.50;99.90
23186;DHT22;11761;51.324;4.590;2022-12-18T15:17:27;-0.50;99.90
23186;DHT22;11761;51.324;4.590;2022-12-18T15:20:03;-0.50;99.90
23186;DHT22;11761;51.324;4.590;2022-12-18T15:22:35;-0.50;99.90
23186;DHT22;11761;51.324;4.590;2022-12-18T15:25:20;-0.50;99.90
23186;DHT22;11761;51.324;4.590;2022-12-18T15:27:48;-0.50;99.90
23186;DHT22;11761;51.324;4.590;2022-12-18T15:30:16;-0.50;99.90
23186;DHT22;11761;51.324;4.590;2022-12-18T15:32:44;-0.50;99.90
23186;DHT22;11761;51.324;4.590;2022-12-18T15:37:37;-0.50;99.90
23186;DHT22;11761;51.324;4.590;2022-12-18T15:40:04;-0.50;99.90
23186;DHT22;11761;51.324;4.590;2022-12-18T15:42:30;-0.50;99.90
23186;DHT22;11761;51.324;4.590;2022-12-18T15:45:15;-0.50;99.90
23186;DHT22;11761;51.324;4.590;2022-12-18T15:47:41;-0.50;99.90
23186;DHT22;11761;51.324;4.590;2022-12-18T15:50:08;-0.40;99.90
23186;DHT22;11761;51.324;4.590;2022-12-18T15:52:43;-0.40;99.90
23186;DHT22;11761;51.324;4.590;2022-12-18T15:55:14;-0.40;99.90
23186;DHT22;11761;51.324;4.590;2022-12-18T15:57:59;-0.40;99.90
23186;DHT22;11761;51.324;4.590;2022-12-18T16:00:25;-0.40;99.90
23186;DHT22;11761;51.324;4.590;2022-12-18T16:02:51;-0.40;99.90
23186;DHT22;11761;51.324;4.590;2022-12-18T16:05:19;-0.40;99.90
23186;DHT22;11761;51.324;4.590;2022-12-18T16:07:46;-0.30;99.90
23186;DHT22;11761;51.324;4.590;2022-12-18T16:10:13;-0.30;99.90
23186;DHT22;11761;51.324;4.590;2022-12-18T16:12:39;-0.30;99.90
23186;DHT22;11761;51.324;4.590;2022-12-18T16:15:07;-0.30;99.90
23186;DHT22;11761;51.324;4.590;2022-12-18T16:17:33;-0.30;99.90
23186;DHT22;11761;51.324;4.590;2022-12-18T16:19:59;-0.30;99.90
23186;DHT22;11761;51.324;4.590;2022-12-18T16:22:28;-0.20;99.90
23186;DHT22;11761;51.324;4.590;2022-12-18T16:24:55;-0.20;99.90
23186;DHT22;11761;51.324;4.590;2022-12-18T16:27:22;-0.20;99.90
23186;DHT22;11761;51.324;4.590;2022-12-18T16:29:49;-0.10;99.90
23186;DHT22;11761;51.324;4.590;2022-12-18T16:32:17;-0.10;99.90
23186;DHT22;11761;51.324;4.590;2022-12-18T16:34:44;-0.10;99.90
23186;DHT22;11761;51.324;4.590;2022-12-18T16:37:12;-0.10;99.90
23186;DHT22;11761;51.324;4.590;2022-12-18T16:39:40;-0.10;99.90
23186;DHT22;11761;51.324;4.590;2022-12-18T16:42:13;-0.10;99.90
23186;DHT22;11761;51.324;4.590;2022-12-18T16:44:40;0.00;99.90
23186;DHT22;11761;51.324;4.590;2022-12-18T16:47:07;0.00;99.90
23186;DHT22;11761;51.324;4.590;2022-12-18T16:49:33;0.00;99.90
23186;DHT22;11761;51.324;4.590;2022-12-18T16:51:59;0.00;99.90
23186;DHT22;11761;51.324;4.590;2022-12-18T16:54:26;0.00;99.90
23186;DHT22;11761;51.324;4.590;2022-12-18T16:56:56;0.10;99.90
23186;DHT22;11761;51.324;4.590;2022-12-18T16:59:22;0.10;99.90
23186;DHT22;11761;51.324;4.590;2022-12-18T17:01:48;0.10;99.90
23186;DHT22;11761;51.324;4.590;2022-12-18T17:04:16;0.10;99.90
23186;DHT22;11761;51.324;4.590;2022-12-18T17:06:44;0.10;99.90
23186;DHT22;11761;51.324;4.590;2022-12-18T17:09:14;0.10;99.90
23186;DHT22;11761;51.324;4.590;2022-12-18T17:11:46;0.10;99.90
23186;DHT22;11761;51.324;4.590;2022-12-18T17:14:15;0.10;99.90
23186;DHT22;11761;51.324;4.590;2022-12-18T17:16:42;0.20;99.90
23186;DHT22;11761;51.324;4.590;2022-12-18T17:19:09;0.20;99.90
23186;DHT22;11761;51.324;4.590;2022-12-18T17:21:35;0.20;99.90
23186;DHT22;11761;51.324;4.590;2022-12-18T17:24:01;0.20;99.90
23186;DHT22;11761;51.324;4.590;2022-12-18T17:26:28;0.20;99.90
23186;DHT22;11761;51.324;4.590;2022-12-18T17:28:56;0.30;99.90